sensor_id;sensor_type;location;lat;lon;timestamp;P1;durP1;ratioP1;P2;durP2;ratioP2
34695;SDS011;20918;51.138;17.370;2023-12-20T00:01:43;19.60;;;12.50;;
34695;SDS011;20918;51.138;17.370;2023-12-20T00:04:52;15.90;;;11.00;;
34695;SDS011;20918;51.138;17.370;2023-12-20T00:10:54;17.50;;;10.60;;
34695;SDS011;20918;51.138;17.370;2023-12-20T00:13:58;13.80;;;10.00;;
34695;SDS011;20918;51.138;17.370;2023-12-20T00:16:59;16.10;;;10.10;;
34695;SDS011;20918;51.138;17.370;2023-12-20T00:23:01;14.70;;;9.30;;
34695;SDS011;20918;51.138;17.370;2023-12-20T00:26:02;18.00;;;11.50;;
34695;SDS011;20918;51.138;17.370;2023-12-20T00:29:03;17.40;;;10.10;;
34695;SDS011;20918;51.138;17.370;2023-12-20T00:32:04;15.10;;;10.60;;
34695;SDS011;20918;51.138;17.370;2023-12-20T00:38:19;15.30;;;10.40;;
34695;SDS011;20918;51.138;17.370;2023-12-20T00:41:19;14.80;;;10.50;;
34695;SDS011;20918;51.138;17.370;2023-12-20T00:47:26;15.80;;;10.70;;
34695;SDS011;20918;51.138;17.370;2023-12-20T00:50:29;17.40;;;11.10;;
34695;SDS011;20918;51.138;17.370;2023-12-20T00:53:30;18.80;;;12.40;;
34695;SDS011;20918;51.138;17.370;2023-12-20T00:59:32;19.20;;;12.80;;
34695;SDS011;20918;51.138;17.370;2023-12-20T01:02:36;17.30;;;12.60;;
34695;SDS011;20918;51.138;17.370;2023-12-20T01:05:37;19.20;;;12.70;;
34695;SDS011;20918;51.138;17.370;2023-12-20T01:08:58;20.70;;;13.50;;
34695;SDS011;20918;51.138;17.370;2023-12-20T01:15:00;18.90;;;12.90;;
34695;SDS011;20918;51.138;17.370;2023-12-20T01:18:01;23.20;;;13.70;;
34695;SDS011;20918;51.138;17.370;2023-12-20T01:21:02;28.10;;;14.60;;
34695;SDS011;20918;51.138;17.370;2023-12-20T01:24:06;26.70;;;14.20;;
34695;SDS011;20918;51.138;17.370;2023-12-20T01:27:07;20.90;;;13.80;;
34695;SDS011;20918;51.138;17.370;2023-12-20T01:30:11;21.20;;;13.70;;
34695;SDS011;20918;51.138;17.370;2023-12-20T01:33:22;22.50;;;13.50;;
34695;SDS011;20918;51.138;17.370;2023-12-20T01:39:23;26.20;;;13.60;;
34695;SDS011;20918;51.138;17.370;2023-12-20T01:45:25;15.80;;;11.50;;
34695;SDS011;20918;51.138;17.370;2023-12-20T01:48:28;15.70;;;11.00;;
34695;SDS011;20918;51.138;17.370;2023-12-20T01:51:35;15.60;;;11.10;;
34695;SDS011;20918;51.138;17.370;2023-12-20T01:55:03;14.60;;;10.60;;
34695;SDS011;20918;51.138;17.370;2023-12-20T01:58:13;12.90;;;10.20;;
34695;SDS011;20918;51.138;17.370;2023-12-20T02:01:14;13.80;;;9.30;;
34695;SDS011;20918;51.138;17.370;2023-12-20T02:04:16;13.30;;;9.90;;
34695;SDS011;20918;51.138;17.370;2023-12-20T02:07:18;14.40;;;11.00;;
34695;SDS011;20918;51.138;17.370;2023-12-20T02:10:19;12.40;;;10.20;;
34695;SDS011;20918;51.138;17.370;2023-12-20T02:13:49;13.70;;;10.20;;
34695;SDS011;20918;51.138;17.370;2023-12-20T02:17:08;15.80;;;11.00;;
34695;SDS011;20918;51.138;17.370;2023-12-20T02:23:09;14.90;;;10.70;;
34695;SDS011;20918;51.138;17.370;2023-12-20T02:26:10;16.00;;;10.80;;
34695;SDS011;20918;51.138;17.370;2023-12-20T02:29:13;13.60;;;8.60;;
34695;SDS011;20918;51.138;17.370;2023-12-20T02:32:21;11.80;;;8.60;;
34695;SDS011;20918;51.138;17.370;2023-12-20T02:35:30;12.30;;;9.10;;
34695;SDS011;20918;51.138;17.370;2023-12-20T02:41:32;12.30;;;7.20;;
34695;SDS011;20918;51.138;17.370;2023-12-20T02:44:52;9.00;;;6.80;;
34695;SDS011;20918;51.138;17.370;2023-12-20T02:48:05;8.80;;;6.70;;
34695;SDS011;20918;51.138;17.370;2023-12-20T02:51:18;7.60;;;5.60;;
34695;SDS011;20918;51.138;17.370;2023-12-20T02:57:19;6.20;;;4.90;;
34695;SDS011;20918;51.138;17.370;2023-12-20T03:00:43;6.70;;;5.00;;
34695;SDS011;20918;51.138;17.370;2023-12-20T03:03:49;6.10;;;4.70;;
34695;SDS011;20918;51.138;17.370;2023-12-20T03:06:50;5.90;;;4.80;;
34695;SDS011;20918;51.138;17.370;2023-12-20T03:09:51;5.10;;;4.00;;
34695;SDS011;20918;51.138;17.370;2023-12-20T03:15:52;5.70;;;4.10;;
34695;SDS011;20918;51.138;17.370;2023-12-20T03:18:53;7.40;;;4.00;;
34695;SDS011;20918;51.138;17.370;2023-12-20T03:21:54;4.10;;;3.60;;
34695;SDS011;20918;51.138;17.370;2023-12-20T03:24:55;4.20;;;3.30;;
34695;SDS011;20918;51.138;17.370;2023-12-20T03:27:56;3.70;;;3.20;;
34695;SDS011;20918;51.138;17.370;2023-12-20T03:30:58;3.20;;;2.90;;
34695;SDS011;20918;51.138;17.370;2023-12-20T03:34:02;4.30;;;3.50;;
34695;SDS011;20918;51.138;17.370;2023-12-20T03:37:10;3.50;;;3.20;;
34695;SDS011;20918;51.138;17.370;2023-12-20T03:40:28;4.30;;;3.90;;
34695;SDS011;20918;51.138;17.370;2023-12-20T03:43:29;4.70;;;4.20;;
34695;SDS011;20918;51.138;17.370;2023-12-20T03:46:29;3.70;;;3.40;;
34695;SDS011;20918;51.138;17.370;2023-12-20T03:49:30;5.80;;;4.00;;
34695;SDS011;20918;51.138;17.370;2023-12-20T03:52:33;5.00;;;3.80;;
34695;SDS011;20918;51.138;17.370;2023-12-20T03:58:40;4.30;;;3.30;;
34695;SDS011;20918;51.138;17.370;2023-12-20T04:04:53;5.10;;;3.50;;
34695;SDS011;20918;51.138;17.370;2023-12-20T04:07:54;3.30;;;2.70;;
34695;SDS011;20918;51.138;17.370;2023-12-20T04:11:22;4.60;;;3.10;;
34695;SDS011;20918;51.138;17.370;2023-12-20T04:14:25;5.50;;;3.80;;
34695;SDS011;20918;51.138;17.370;2023-12-20T04:20:27;3.20;;;2.80;;
34695;SDS011;20918;51.138;17.370;2023-12-20T04:26:34;2.30;;;2.00;;
34695;SDS011;20918;51.138;17.370;2023-12-20T04:29:38;4.00;;;2.60;;
34695;SDS011;20918;51.138;17.370;2023-12-20T04:35:40;2.20;;;2.00;;
34695;SDS011;20918;51.138;17.370;2023-12-20T04:38:48;2.20;;;2.00;;
34695;SDS011;20918;51.138;17.370;2023-12-20T04:41:49;3.50;;;2.40;;
34695;SDS011;20918;51.138;17.370;2023-12-20T04:44:52;3.10;;;2.10;;
34695;SDS011;20918;51.138;17.370;2023-12-20T04:47:53;2.70;;;2.20;;
34695;SDS011;20918;51.138;17.370;2023-12-20T04:50:58;3.40;;;2.30;;
34695;SDS011;20918;51.138;17.370;2023-12-20T04:54:06;2.10;;;1.80;;
34695;SDS011;20918;51.138;17.370;2023-12-20T04:57:07;2.40;;;2.20;;
34695;SDS011;20918;51.138;17.370;2023-12-20T05:06:09;1.70;;;1.60;;
34695;SDS011;20918;51.138;17.370;2023-12-20T05:09:20;2.80;;;2.10;;
34695;SDS011;20918;51.138;17.370;2023-12-20T05:12:29;2.40;;;1.90;;
34695;SDS011;20918;51.138;17.370;2023-12-20T05:15:30;2.30;;;2.10;;
34695;SDS011;20918;51.138;17.370;2023-12-20T05:18:30;2.10;;;1.90;;
34695;SDS011;20918;51.138;17.370;2023-12-20T05:24:39;2.00;;;1.90;;
34695;SDS011;20918;51.138;17.370;2023-12-20T05:27:41;2.60;;;2.20;;
34695;SDS011;20918;51.138;17.370;2023-12-20T05:37:06;3.60;;;2.80;;
34695;SDS011;20918;51.138;17.370;2023-12-20T05:40:07;3.90;;;2.80;;
34695;SDS011;20918;51.138;17.370;2023-12-20T05:43:13;3.50;;;2.50;;
34695;SDS011;20918;51.138;17.370;2023-12-20T05:46:14;3.20;;;2.60;;
34695;SDS011;20918;51.138;17.370;2023-12-20T05:52:18;3.20;;;2.50;;
34695;SDS011;20918;51.138;17.370;2023-12-20T05:55:39;4.00;;;2.70;;
34695;SDS011;20918;51.138;17.370;2023-12-20T06:01:55;4.80;;;2.80;;
34695;SDS011;20918;51.138;17.370;2023-12-20T06:04:56;4.90;;;2.60;;
34695;SDS011;20918;51.138;17.370;2023-12-20T06:08:03;5.50;;;2.80;;
34695;SDS011;20918;51.138;17.370;2023-12-20T06:14:23;4.00;;;3.40;;
34695;SDS011;20918;51.138;17.370;2023-12-20T06:17:24;4.70;;;3.10;;
34695;SDS011;20918;51.138;17.370;2023-12-20T06:20:54;5.60;;;3.40;;
34695;SDS011;20918;51.138;17.370;2023-12-20T06:24:13;4.20;;;3.40;;
34695;SDS011;20918;51.138;17.370;2023-12-20T06:27:16;4.60;;;3.00;;
34695;SDS011;20918;51.138;17.370;2023-12-20T06:30:17;4.80;;;3.10;;
34695;SDS011;20918;51.138;17.370;2023-12-20T06:36:20;4.30;;;3.00;;
34695;SDS011;20918;51.138;17.370;2023-12-20T06:39:20;5.50;;;4.00;;
34695;SDS011;20918;51.138;17.370;2023-12-20T06:42:21;5.80;;;3.90;;
34695;SDS011;20918;51.138;17.370;2023-12-20T06:45:22;11.10;;;4.10;;
34695;SDS011;20918;51.138;17.370;2023-12-20T06:48:25;4.70;;;3.60;;
34695;SDS011;20918;51.138;17.370;2023-12-20T06:51:28;6.00;;;3.90;;
34695;SDS011;20918;51.138;17.370;2023-12-20T06:57:29;6.60;;;3.60;;
34695;SDS011;20918;51.138;17.370;2023-12-20T07:00:31;3.80;;;2.80;;
34695;SDS011;20918;51.138;17.370;2023-12-20T07:03:33;3.90;;;3.00;;
34695;SDS011;20918;51.138;17.370;2023-12-20T07:06:34;3.80;;;3.10;;
34695;SDS011;20918;51.138;17.370;2023-12-20T07:09:34;4.10;;;3.40;;
34695;SDS011;20918;51.138;17.370;2023-12-20T07:15:36;4.10;;;3.40;;
34695;SDS011;20918;51.138;17.370;2023-12-20T07:18:37;4.30;;;3.40;;
34695;SDS011;20918;51.138;17.370;2023-12-20T07:24:38;4.20;;;3.10;;
34695;SDS011;20918;51.138;17.370;2023-12-20T07:27:39;4.10;;;3.10;;
34695;SDS011;20918;51.138;17.370;2023-12-20T07:30:44;4.90;;;3.30;;
34695;SDS011;20918;51.138;17.370;2023-12-20T07:33:48;3.40;;;2.70;;
34695;SDS011;20918;51.138;17.370;2023-12-20T07:39:49;3.60;;;2.60;;
34695;SDS011;20918;51.138;17.370;2023-12-20T07:42:50;4.00;;;2.60;;
34695;SDS011;20918;51.138;17.370;2023-12-20T07:48:52;3.50;;;2.80;;
34695;SDS011;20918;51.138;17.370;2023-12-20T07:51:53;7.20;;;2.50;;
34695;SDS011;20918;51.138;17.370;2023-12-20T07:57:57;3.60;;;3.20;;
34695;SDS011;20918;51.138;17.370;2023-12-20T08:01:03;4.30;;;3.00;;
34695;SDS011;20918;51.138;17.370;2023-12-20T08:04:04;3.60;;;2.70;;
34695;SDS011;20918;51.138;17.370;2023-12-20T08:07:05;5.00;;;2.80;;
34695;SDS011;20918;51.138;17.370;2023-12-20T08:13:07;5.90;;;3.40;;
34695;SDS011;20918;51.138;17.370;2023-12-20T08:16:14;4.80;;;3.30;;
34695;SDS011;20918;51.138;17.370;2023-12-20T08:19:16;5.10;;;2.40;;
34695;SDS011;20918;51.138;17.370;2023-12-20T08:22:25;5.60;;;3.00;;
34695;SDS011;20918;51.138;17.370;2023-12-20T08:25:29;6.70;;;2.80;;
34695;SDS011;20918;51.138;17.370;2023-12-20T08:28:30;2.90;;;2.20;;
34695;SDS011;20918;51.138;17.370;2023-12-20T08:31:31;4.60;;;2.50;;
34695;SDS011;20918;51.138;17.370;2023-12-20T08:37:45;3.50;;;2.90;;
34695;SDS011;20918;51.138;17.370;2023-12-20T08:41:16;7.90;;;3.20;;
34695;SDS011;20918;51.138;17.370;2023-12-20T08:44:20;5.70;;;3.40;;
34695;SDS011;20918;51.138;17.370;2023-12-20T08:47:22;3.10;;;2.40;;
34695;SDS011;20918;51.138;17.370;2023-12-20T08:56:42;3.20;;;2.50;;
34695;SDS011;20918;51.138;17.370;2023-12-20T08:59:50;3.40;;;2.30;;
34695;SDS011;20918;51.138;17.370;2023-12-20T09:05:55;3.70;;;2.40;;
34695;SDS011;20918;51.138;17.370;2023-12-20T09:09:09;4.60;;;2.70;;
34695;SDS011;20918;51.138;17.370;2023-12-20T09:15:50;4.00;;;2.80;;
34695;SDS011;20918;51.138;17.370;2023-12-20T09:19:00;6.50;;;2.70;;
34695;SDS011;20918;51.138;17.370;2023-12-20T09:25:02;4.40;;;2.90;;
34695;SDS011;20918;51.138;17.370;2023-12-20T09:28:03;3.90;;;2.90;;
34695;SDS011;20918;51.138;17.370;2023-12-20T09:31:07;5.90;;;3.60;;
34695;SDS011;20918;51.138;17.370;2023-12-20T09:34:08;6.60;;;3.90;;
34695;SDS011;20918;51.138;17.370;2023-12-20T09:37:09;4.80;;;3.10;;
34695;SDS011;20918;51.138;17.370;2023-12-20T09:43:22;4.40;;;2.70;;
34695;SDS011;20918;51.138;17.370;2023-12-20T09:46:24;6.00;;;3.40;;
34695;SDS011;20918;51.138;17.370;2023-12-20T09:49:42;4.10;;;3.20;;
34695;SDS011;20918;51.138;17.370;2023-12-20T09:52:51;4.70;;;2.80;;
34695;SDS011;20918;51.138;17.370;2023-12-20T09:55:53;7.60;;;3.90;;
34695;SDS011;20918;51.138;17.370;2023-12-20T09:58:54;5.00;;;3.20;;
34695;SDS011;20918;51.138;17.370;2023-12-20T10:05:03;3.80;;;2.70;;
34695;SDS011;20918;51.138;17.370;2023-12-20T10:08:09;4.80;;;2.90;;
34695;SDS011;20918;51.138;17.370;2023-12-20T10:11:13;3.50;;;2.80;;
34695;SDS011;20918;51.138;17.370;2023-12-20T10:14:40;5.50;;;2.70;;
34695;SDS011;20918;51.138;17.370;2023-12-20T10:17:43;3.40;;;2.80;;
34695;SDS011;20918;51.138;17.370;2023-12-20T10:20:52;5.10;;;3.40;;
34695;SDS011;20918;51.138;17.370;2023-12-20T10:23:57;4.00;;;2.90;;
34695;SDS011;20918;51.138;17.370;2023-12-20T10:30:38;5.50;;;3.60;;
34695;SDS011;20918;51.138;17.370;2023-12-20T10:33:40;5.50;;;3.70;;
34695;SDS011;20918;51.138;17.370;2023-12-20T10:36:46;5.20;;;3.40;;
34695;SDS011;20918;51.138;17.370;2023-12-20T10:39:50;5.30;;;3.50;;
34695;SDS011;20918;51.138;17.370;2023-12-20T10:42:56;12.90;;;6.30;;
34695;SDS011;20918;51.138;17.370;2023-12-20T10:45:58;4.40;;;3.60;;
34695;SDS011;20918;51.138;17.370;2023-12-20T10:49:02;6.80;;;4.20;;
34695;SDS011;20918;51.138;17.370;2023-12-20T10:52:03;9.90;;;3.80;;
34695;SDS011;20918;51.138;17.370;2023-12-20T10:55:06;6.30;;;4.10;;
34695;SDS011;20918;51.138;17.370;2023-12-20T10:58:33;8.80;;;3.70;;
34695;SDS011;20918;51.138;17.370;2023-12-20T11:01:42;5.80;;;3.10;;
34695;SDS011;20918;51.138;17.370;2023-12-20T11:08:24;5.00;;;2.50;;
34695;SDS011;20918;51.138;17.370;2023-12-20T11:21:41;5.20;;;2.90;;
34695;SDS011;20918;51.138;17.370;2023-12-20T11:24:44;4.60;;;2.70;;
34695;SDS011;20918;51.138;17.370;2023-12-20T11:28:10;5.40;;;3.00;;
34695;SDS011;20918;51.138;17.370;2023-12-20T11:31:12;9.10;;;2.30;;
34695;SDS011;20918;51.138;17.370;2023-12-20T11:34:14;6.10;;;2.40;;
34695;SDS011;20918;51.138;17.370;2023-12-20T11:37:17;4.90;;;2.40;;
34695;SDS011;20918;51.138;17.370;2023-12-20T11:40:20;5.50;;;3.10;;
34695;SDS011;20918;51.138;17.370;2023-12-20T11:43:32;8.10;;;3.00;;
34695;SDS011;20918;51.138;17.370;2023-12-20T11:46:35;7.70;;;2.60;;
34695;SDS011;20918;51.138;17.370;2023-12-20T11:49:36;8.70;;;3.10;;
34695;SDS011;20918;51.138;17.370;2023-12-20T11:52:37;7.70;;;3.30;;
34695;SDS011;20918;51.138;17.370;2023-12-20T11:55:38;8.90;;;3.90;;
34695;SDS011;20918;51.138;17.370;2023-12-20T11:58:42;6.60;;;3.50;;
34695;SDS011;20918;51.138;17.370;2023-12-20T12:01:49;8.10;;;3.80;;
34695;SDS011;20918;51.138;17.370;2023-12-20T12:04:53;6.70;;;2.90;;
34695;SDS011;20918;51.138;17.370;2023-12-20T12:07:59;6.30;;;3.20;;
34695;SDS011;20918;51.138;17.370;2023-12-20T12:11:05;6.60;;;3.10;;
34695;SDS011;20918;51.138;17.370;2023-12-20T12:14:09;8.90;;;3.00;;
34695;SDS011;20918;51.138;17.370;2023-12-20T12:17:11;11.30;;;3.90;;
34695;SDS011;20918;51.138;17.370;2023-12-20T12:20:13;7.90;;;3.20;;
34695;SDS011;20918;51.138;17.370;2023-12-20T12:23:22;7.50;;;3.40;;
34695;SDS011;20918;51.138;17.370;2023-12-20T12:26:37;6.50;;;3.20;;
34695;SDS011;20918;51.138;17.370;2023-12-20T12:29:39;6.80;;;2.60;;
34695;SDS011;20918;51.138;17.370;2023-12-20T12:32:40;5.30;;;2.10;;
34695;SDS011;20918;51.138;17.370;2023-12-20T12:35:49;4.10;;;2.60;;
34695;SDS011;20918;51.138;17.370;2023-12-20T12:41:51;3.60;;;2.30;;
34695;SDS011;20918;51.138;17.370;2023-12-20T12:44:55;7.60;;;2.90;;
34695;SDS011;20918;51.138;17.370;2023-12-20T12:47:58;5.90;;;2.30;;
34695;SDS011;20918;51.138;17.370;2023-12-20T12:54:00;8.20;;;2.10;;
34695;SDS011;20918;51.138;17.370;2023-12-20T12:57:01;4.20;;;1.80;;
34695;SDS011;20918;51.138;17.370;2023-12-20T13:00:02;2.80;;;1.80;;
34695;SDS011;20918;51.138;17.370;2023-12-20T13:03:24;6.00;;;2.80;;
34695;SDS011;20918;51.138;17.370;2023-12-20T13:06:27;3.60;;;2.20;;
34695;SDS011;20918;51.138;17.370;2023-12-20T13:09:38;6.60;;;1.80;;
34695;SDS011;20918;51.138;17.370;2023-12-20T13:12:39;4.50;;;2.00;;
34695;SDS011;20918;51.138;17.370;2023-12-20T13:15:41;5.90;;;2.50;;
34695;SDS011;20918;51.138;17.370;2023-12-20T13:18:44;3.80;;;1.70;;
34695;SDS011;20918;51.138;17.370;2023-12-20T13:25:06;6.80;;;3.00;;
34695;SDS011;20918;51.138;17.370;2023-12-20T13:28:09;4.60;;;2.40;;
34695;SDS011;20918;51.138;17.370;2023-12-20T13:31:10;5.60;;;2.60;;
34695;SDS011;20918;51.138;17.370;2023-12-20T13:37:15;4.30;;;2.00;;
34695;SDS011;20918;51.138;17.370;2023-12-20T13:40:16;4.60;;;1.90;;
34695;SDS011;20918;51.138;17.370;2023-12-20T13:43:18;4.50;;;1.80;;
34695;SDS011;20918;51.138;17.370;2023-12-20T13:46:21;6.30;;;2.10;;
34695;SDS011;20918;51.138;17.370;2023-12-20T13:49:24;5.50;;;2.20;;
34695;SDS011;20918;51.138;17.370;2023-12-20T13:52:26;3.20;;;1.90;;
34695;SDS011;20918;51.138;17.370;2023-12-20T13:58:30;7.40;;;2.80;;
34695;SDS011;20918;51.138;17.370;2023-12-20T14:04:32;7.40;;;2.70;;
34695;SDS011;20918;51.138;17.370;2023-12-20T14:07:32;7.70;;;2.60;;
34695;SDS011;20918;51.138;17.370;2023-12-20T14:10:34;8.60;;;3.10;;
34695;SDS011;20918;51.138;17.370;2023-12-20T14:13:38;6.30;;;2.60;;
34695;SDS011;20918;51.138;17.370;2023-12-20T14:16:51;8.90;;;3.00;;
34695;SDS011;20918;51.138;17.370;2023-12-20T14:19:57;6.90;;;2.90;;
34695;SDS011;20918;51.138;17.370;2023-12-20T14:23:26;7.90;;;2.70;;
34695;SDS011;20918;51.138;17.370;2023-12-20T14:26:28;8.50;;;2.50;;
34695;SDS011;20918;51.138;17.370;2023-12-20T14:29:29;10.00;;;3.50;;
34695;SDS011;20918;51.138;17.370;2023-12-20T14:32:30;11.40;;;3.50;;
34695;SDS011;20918;51.138;17.370;2023-12-20T14:35:35;5.20;;;2.70;;
34695;SDS011;20918;51.138;17.370;2023-12-20T14:38:38;5.60;;;2.30;;
34695;SDS011;20918;51.138;17.370;2023-12-20T14:41:50;5.30;;;2.00;;
34695;SDS011;20918;51.138;17.370;2023-12-20T14:44:57;5.10;;;1.70;;
34695;SDS011;20918;51.138;17.370;2023-12-20T14:47:58;9.10;;;2.60;;
34695;SDS011;20918;51.138;17.370;2023-12-20T14:50:59;4.90;;;2.00;;
34695;SDS011;20918;51.138;17.370;2023-12-20T14:54:07;7.70;;;2.70;;
34695;SDS011;20918;51.138;17.370;2023-12-20T14:57:10;5.30;;;2.50;;
34695;SDS011;20918;51.138;17.370;2023-12-20T15:00:11;7.80;;;2.90;;
34695;SDS011;20918;51.138;17.370;2023-12-20T15:03:16;7.90;;;4.60;;
34695;SDS011;20918;51.138;17.370;2023-12-20T15:06:18;10.00;;;4.20;;
34695;SDS011;20918;51.138;17.370;2023-12-20T15:09:20;10.70;;;3.80;;
34695;SDS011;20918;51.138;17.370;2023-12-20T15:12:21;7.10;;;3.40;;
34695;SDS011;20918;51.138;17.370;2023-12-20T15:15:23;10.80;;;4.10;;
34695;SDS011;20918;51.138;17.370;2023-12-20T15:21:25;4.50;;;2.40;;
34695;SDS011;20918;51.138;17.370;2023-12-20T15:24:36;7.70;;;3.00;;
34695;SDS011;20918;51.138;17.370;2023-12-20T15:27:41;9.10;;;3.30;;
34695;SDS011;20918;51.138;17.370;2023-12-20T15:30:41;7.90;;;2.50;;
34695;SDS011;20918;51.138;17.370;2023-12-20T15:33:47;5.50;;;2.80;;
34695;SDS011;20918;51.138;17.370;2023-12-20T15:36:47;9.50;;;2.60;;
34695;SDS011;20918;51.138;17.370;2023-12-20T15:42:52;4.90;;;2.50;;
34695;SDS011;20918;51.138;17.370;2023-12-20T15:45:54;5.90;;;3.30;;
34695;SDS011;20918;51.138;17.370;2023-12-20T15:48:57;8.90;;;2.70;;
34695;SDS011;20918;51.138;17.370;2023-12-20T15:52:06;5.10;;;2.60;;
34695;SDS011;20918;51.138;17.370;2023-12-20T15:55:10;8.00;;;2.70;;
34695;SDS011;20918;51.138;17.370;2023-12-20T16:01:20;8.20;;;3.50;;
34695;SDS011;20918;51.138;17.370;2023-12-20T16:04:21;8.30;;;3.10;;
34695;SDS011;20918;51.138;17.370;2023-12-20T16:07:22;5.60;;;3.20;;
34695;SDS011;20918;51.138;17.370;2023-12-20T16:10:26;7.20;;;3.80;;
34695;SDS011;20918;51.138;17.370;2023-12-20T16:13:30;6.70;;;3.50;;
34695;SDS011;20918;51.138;17.370;2023-12-20T16:16:40;8.40;;;3.80;;
34695;SDS011;20918;51.138;17.370;2023-12-20T16:19:44;6.50;;;3.30;;
34695;SDS011;20918;51.138;17.370;2023-12-20T16:22:45;6.90;;;3.10;;
34695;SDS011;20918;51.138;17.370;2023-12-20T16:25:55;6.60;;;3.30;;
34695;SDS011;20918;51.138;17.370;2023-12-20T16:28:56;7.50;;;3.10;;
34695;SDS011;20918;51.138;17.370;2023-12-20T16:31:57;8.40;;;3.50;;
34695;SDS011;20918;51.138;17.370;2023-12-20T16:38:00;15.10;;;8.90;;
34695;SDS011;20918;51.138;17.370;2023-12-20T16:41:01;12.10;;;5.20;;
34695;SDS011;20918;51.138;17.370;2023-12-20T16:44:03;7.00;;;4.20;;
34695;SDS011;20918;51.138;17.370;2023-12-20T16:47:07;8.60;;;4.40;;
34695;SDS011;20918;51.138;17.370;2023-12-20T16:50:08;7.90;;;4.50;;
34695;SDS011;20918;51.138;17.370;2023-12-20T16:53:09;10.60;;;4.50;;
34695;SDS011;20918;51.138;17.370;2023-12-20T16:59:11;9.40;;;4.30;;
34695;SDS011;20918;51.138;17.370;2023-12-20T17:02:11;9.80;;;5.10;;
34695;SDS011;20918;51.138;17.370;2023-12-20T17:05:12;9.40;;;5.10;;
34695;SDS011;20918;51.138;17.370;2023-12-20T17:08:18;9.70;;;5.60;;
34695;SDS011;20918;51.138;17.370;2023-12-20T17:11:19;12.30;;;6.40;;
34695;SDS011;20918;51.138;17.370;2023-12-20T17:14:25;10.70;;;5.80;;
34695;SDS011;20918;51.138;17.370;2023-12-20T17:17:27;11.30;;;5.30;;
34695;SDS011;20918;51.138;17.370;2023-12-20T17:20:27;10.80;;;5.50;;
34695;SDS011;20918;51.138;17.370;2023-12-20T17:23:31;7.50;;;4.20;;
34695;SDS011;20918;51.138;17.370;2023-12-20T17:29:34;8.50;;;4.90;;
34695;SDS011;20918;51.138;17.370;2023-12-20T17:35:40;11.50;;;5.00;;
34695;SDS011;20918;51.138;17.370;2023-12-20T17:38:40;10.80;;;5.60;;
34695;SDS011;20918;51.138;17.370;2023-12-20T17:41:44;12.50;;;6.00;;
34695;SDS011;20918;51.138;17.370;2023-12-20T17:47:45;13.40;;;6.60;;
34695;SDS011;20918;51.138;17.370;2023-12-20T17:50:47;11.20;;;6.30;;
34695;SDS011;20918;51.138;17.370;2023-12-20T17:53:48;8.70;;;5.40;;
34695;SDS011;20918;51.138;17.370;2023-12-20T17:56:55;16.10;;;6.70;;
34695;SDS011;20918;51.138;17.370;2023-12-20T18:00:19;12.20;;;6.50;;
34695;SDS011;20918;51.138;17.370;2023-12-20T18:03:21;21.90;;;7.90;;
34695;SDS011;20918;51.138;17.370;2023-12-20T18:06:22;18.30;;;8.40;;
34695;SDS011;20918;51.138;17.370;2023-12-20T18:09:26;9.70;;;5.30;;
34695;SDS011;20918;51.138;17.370;2023-12-20T18:15:27;11.10;;;4.70;;
34695;SDS011;20918;51.138;17.370;2023-12-20T18:18:32;6.30;;;3.20;;
34695;SDS011;20918;51.138;17.370;2023-12-20T18:21:36;7.80;;;2.60;;
34695;SDS011;20918;51.138;17.370;2023-12-20T18:24:40;4.70;;;2.30;;
34695;SDS011;20918;51.138;17.370;2023-12-20T18:27:45;5.20;;;2.80;;
34695;SDS011;20918;51.138;17.370;2023-12-20T18:33:50;4.70;;;2.20;;
34695;SDS011;20918;51.138;17.370;2023-12-20T18:39:51;8.90;;;2.60;;
34695;SDS011;20918;51.138;17.370;2023-12-20T18:42:52;4.00;;;2.40;;
34695;SDS011;20918;51.138;17.370;2023-12-20T18:45:53;3.70;;;2.10;;
34695;SDS011;20918;51.138;17.370;2023-12-20T18:48:54;7.60;;;3.20;;
34695;SDS011;20918;51.138;17.370;2023-12-20T18:51:55;4.20;;;2.30;;
34695;SDS011;20918;51.138;17.370;2023-12-20T18:57:57;4.10;;;2.30;;
34695;SDS011;20918;51.138;17.370;2023-12-20T19:00:58;3.80;;;2.10;;
34695;SDS011;20918;51.138;17.370;2023-12-20T19:04:00;6.40;;;2.10;;
34695;SDS011;20918;51.138;17.370;2023-12-20T19:07:01;7.10;;;2.40;;
34695;SDS011;20918;51.138;17.370;2023-12-20T19:10:03;5.40;;;2.40;;
34695;SDS011;20918;51.138;17.370;2023-12-20T19:13:04;4.80;;;2.20;;
34695;SDS011;20918;51.138;17.370;2023-12-20T19:16:06;4.30;;;2.20;;
34695;SDS011;20918;51.138;17.370;2023-12-20T19:19:07;7.80;;;2.40;;
34695;SDS011;20918;51.138;17.370;2023-12-20T19:22:08;3.70;;;2.40;;
34695;SDS011;20918;51.138;17.370;2023-12-20T19:25:09;5.00;;;2.70;;
34695;SDS011;20918;51.138;17.370;2023-12-20T19:28:10;5.10;;;2.50;;
34695;SDS011;20918;51.138;17.370;2023-12-20T19:31:11;4.70;;;2.80;;
34695;SDS011;20918;51.138;17.370;2023-12-20T19:34:12;6.00;;;2.60;;
34695;SDS011;20918;51.138;17.370;2023-12-20T19:37:13;6.30;;;3.00;;
34695;SDS011;20918;51.138;17.370;2023-12-20T19:40:13;4.30;;;2.40;;
34695;SDS011;20918;51.138;17.370;2023-12-20T19:43:14;3.30;;;2.00;;
34695;SDS011;20918;51.138;17.370;2023-12-20T19:46:15;6.90;;;2.40;;
34695;SDS011;20918;51.138;17.370;2023-12-20T19:49:16;6.50;;;2.30;;
34695;SDS011;20918;51.138;17.370;2023-12-20T19:55:20;5.20;;;2.60;;
34695;SDS011;20918;51.138;17.370;2023-12-20T19:58:46;3.70;;;2.10;;
34695;SDS011;20918;51.138;17.370;2023-12-20T20:01:47;3.20;;;2.00;;
34695;SDS011;20918;51.138;17.370;2023-12-20T20:04:48;5.60;;;2.50;;
34695;SDS011;20918;51.138;17.370;2023-12-20T20:07:55;5.90;;;2.60;;
34695;SDS011;20918;51.138;17.370;2023-12-20T20:10:59;8.20;;;2.40;;
34695;SDS011;20918;51.138;17.370;2023-12-20T20:17:04;3.60;;;2.10;;
34695;SDS011;20918;51.138;17.370;2023-12-20T20:20:07;6.60;;;3.20;;
34695;SDS011;20918;51.138;17.370;2023-12-20T20:23:08;5.90;;;3.00;;
34695;SDS011;20918;51.138;17.370;2023-12-20T20:26:12;4.90;;;2.40;;
34695;SDS011;20918;51.138;17.370;2023-12-20T20:29:13;6.10;;;2.00;;
34695;SDS011;20918;51.138;17.370;2023-12-20T20:32:14;5.60;;;2.40;;
34695;SDS011;20918;51.138;17.370;2023-12-20T20:35:15;7.00;;;3.40;;
34695;SDS011;20918;51.138;17.370;2023-12-20T20:38:16;5.40;;;3.00;;
34695;SDS011;20918;51.138;17.370;2023-12-20T20:41:19;4.90;;;3.00;;
34695;SDS011;20918;51.138;17.370;2023-12-20T20:44:20;5.50;;;2.60;;
34695;SDS011;20918;51.138;17.370;2023-12-20T20:50:21;4.20;;;2.20;;
34695;SDS011;20918;51.138;17.370;2023-12-20T20:53:23;6.40;;;2.30;;
34695;SDS011;20918;51.138;17.370;2023-12-20T20:56:24;3.70;;;2.30;;
34695;SDS011;20918;51.138;17.370;2023-12-20T20:59:31;6.60;;;2.60;;
34695;SDS011;20918;51.138;17.370;2023-12-20T21:02:36;3.80;;;1.70;;
34695;SDS011;20918;51.138;17.370;2023-12-20T21:05:40;5.50;;;2.30;;
34695;SDS011;20918;51.138;17.370;2023-12-20T21:08:46;4.10;;;2.10;;
34695;SDS011;20918;51.138;17.370;2023-12-20T21:11:47;4.90;;;2.50;;
34695;SDS011;20918;51.138;17.370;2023-12-20T21:14:50;4.60;;;2.20;;
34695;SDS011;20918;51.138;17.370;2023-12-20T21:17:51;6.10;;;2.40;;
34695;SDS011;20918;51.138;17.370;2023-12-20T21:21:09;6.40;;;2.90;;
34695;SDS011;20918;51.138;17.370;2023-12-20T21:24:11;6.40;;;2.50;;
34695;SDS011;20918;51.138;17.370;2023-12-20T21:27:17;6.70;;;2.60;;
34695;SDS011;20918;51.138;17.370;2023-12-20T21:30:20;2.70;;;2.30;;
34695;SDS011;20918;51.138;17.370;2023-12-20T21:33:21;6.80;;;2.60;;
34695;SDS011;20918;51.138;17.370;2023-12-20T21:36:22;4.70;;;2.40;;